
Distance (Route):
Temperature : -51.4°C
Humidity : 1.1%
Pressure : 24.1hPa| Receiver | Frames | First received | Last received |
|---|---|---|---|
| SP4MAZ | 134 | 2026-08-31 11:25:23 | 2026-08-31 12:31:07 |
| SP3WXH-11 | 84 | 2026-08-31 11:45:19 | 2026-08-31 12:30:19 |
| SQ9EZE-16 | 17 | 2026-08-31 12:21:16 | 2026-08-31 12:30:40 |
| SP3BTT-10 | 6 | 2026-08-31 12:25:13 | 2026-08-31 12:30:15 |
| SQ9EZE-15 | 4 | 2026-08-31 12:15:44 | 2026-08-31 12:27:06 |
| Receiver | Date | Latitude | Longitude | Direction | Speed | Altitude | Climb | Temperature | Humidity | Pressure | Voltage | Killtimer | Uptime | BKT | XDATA |
|---|---|---|---|---|---|---|---|---|---|---|---|---|---|---|---|
| SP4MAZ | 2026-08-31 12:31:07 | 52.61765 | 21.71662 | 141° | 18km/h | 25782m | 5.4m/s | -51.4°C | 1.1% | 24.1hPa | 0V | 00:00:00 | 00:00:00 | 00:00:00 | |
| SP4MAZ | 2026-08-31 12:30:47 | 52.61816 | 21.71522 | 109° | 22km/h | 25649m | 8.1m/s | -51.3°C | 1.1% | 24.6hPa | 0V | 00:00:00 | 00:00:00 | 00:00:00 | |
| SQ9EZE-16 | 2026-08-31 12:30:40 | 52.61825 | 21.71475 | 101° | 20km/h | 25597m | 4.8m/s | 0°C | 0% | 24.8hPa | 0V | 00:00:00 | 00:00:00 | 00:00:00 | |
| SQ9EZE-16 | 2026-08-31 12:30:24 | 52.61855 | 21.71341 | 106° | 24km/h | 25499m | 6.7m/s | 0°C | 0% | 0hPa | 0V | 00:00:00 | 00:00:00 | 00:00:00 | |
| SP3WXH-11 | 2026-08-31 12:30:19 | 52.61857 | 21.71282 | 108° | 26km/h | 25458m | 6.1m/s | -51.1°C | 1.0% | 25.4hPa | 0V | 00:00:00 | 00:00:00 | 00:00:00 | |
| SP3BTT-10 | 2026-08-31 12:30:15 | 52.61863 | 21.71245 | 90° | 15km/h | 25432m | 5.9m/s | 0°C | 0% | 0hPa | 0V | 00:00:00 | 00:00:00 | 00:00:00 | |
| SQ9EZE-16 | 2026-08-31 12:30:09 | 52.61862 | 21.71176 | 79° | 35km/h | 25393m | 6.0m/s | 0°C | 0% | 0hPa | 0V | 00:00:00 | 00:00:00 | 00:00:00 | |
| SP3WXH-11 | 2026-08-31 12:29:48 | 52.61809 | 21.71003 | 11° | 13km/h | 25260m | 5.9m/s | -52.0°C | 1.1% | 26.2hPa | 0V | 00:00:00 | 00:00:00 | 00:00:00 | |
| SQ9EZE-16 | 2026-08-31 12:29:37 | 52.61773 | 21.70949 | 46° | 16km/h | 25189m | 7.2m/s | 0°C | 0% | 0hPa | 0V | 00:00:00 | 00:00:00 | 00:00:00 | |
| SP4MAZ | 2026-08-31 12:29:32 | 52.61766 | 21.70947 | 302° | 4km/h | 25164m | 5.3m/s | -52.3°C | 1.1% | 26.5hPa | 0V | 00:00:00 | 00:00:00 | 00:00:00 | |
| SP3BTT-10 | 2026-08-31 12:29:29 | 52.61755 | 21.70947 | 17° | 13km/h | 25140m | 4.9m/s | 0°C | 0% | 0hPa | 0V | 00:00:00 | 00:00:00 | 00:00:00 | |
| SP3WXH-11 | 2026-08-31 12:29:17 | 52.61723 | 21.70918 | 17° | 16km/h | 25063m | 6.7m/s | -52.5°C | 1.1% | 27.0hPa | 0V | 00:00:00 | 00:00:00 | 00:00:00 | |
| SP4MAZ | 2026-08-31 12:29:12 | 52.61705 | 21.70900 | 46° | 22km/h | 25038m | 5.1m/s | -52.4°C | 1.1% | 27.1hPa | 0V | 00:00:00 | 00:00:00 | 00:00:00 | |
| SP3WXH-11 | 2026-08-31 12:28:46 | 52.61610 | 21.70843 | 358° | 18km/h | 24862m | 5.2m/s | -52.2°C | 1.1% | 27.8hPa | 0V | 00:00:00 | 00:00:00 | 00:00:00 | |
| SQ9EZE-16 | 2026-08-31 12:28:43 | 52.61598 | 21.70843 | 360° | 11km/h | 24843m | 6.2m/s | 0°C | 0% | 0hPa | 0V | 00:00:00 | 00:00:00 | 00:00:00 | |
| SQ9EZE-16 | 2026-08-31 12:28:27 | 52.61561 | 21.70863 | 9° | 7km/h | 24747m | 7.2m/s | 0°C | 0% | 0hPa | 0V | 00:00:00 | 00:00:00 | 00:00:00 | |
| SP4MAZ | 2026-08-31 12:28:20 | 52.61549 | 21.70895 | 279° | 15km/h | 24706m | 6.5m/s | -52.0°C | 1.1% | 28.5hPa | 0V | 00:00:00 | 00:00:00 | 00:00:00 | |
| SP3WXH-11 | 2026-08-31 12:28:15 | 52.61547 | 21.70898 | 88° | 4km/h | 24665m | 6.2m/s | -52.1°C | 1.1% | 28.7hPa | 0V | 00:00:00 | 00:00:00 | 00:00:00 | |
| SP3BTT-10 | 2026-08-31 12:28:14 | 52.61547 | 21.70898 | 89° | 15km/h | 24665m | 6.2m/s | 0°C | 0% | 0hPa | 0V | 00:00:00 | 00:00:00 | 00:00:00 | |
| SQ9EZE-16 | 2026-08-31 12:28:11 | 52.61540 | 21.70895 | 359° | 15km/h | 24642m | 6.5m/s | 0°C | 0% | 0hPa | 0V | 00:00:00 | 00:00:00 | 00:00:00 | |
| SP4MAZ | 2026-08-31 12:27:56 | 52.61517 | 21.70862 | 53° | 5km/h | 24550m | 7.1m/s | -52.5°C | 1.1% | 29.2hPa | 0V | 00:00:00 | 00:00:00 | 00:00:00 | |
| SP3BTT-10 | 2026-08-31 12:27:44 | 52.61477 | 21.70815 | 5° | 9km/h | 24468m | 5.8m/s | 0°C | 0% | 0hPa | 0V | 00:00:00 | 00:00:00 | 00:00:00 | |
| SP4MAZ | 2026-08-31 12:27:36 | 52.61454 | 21.70802 | 32° | 15km/h | 24423m | 5.6m/s | -52.5°C | 1.1% | 29.7hPa | 0V | 00:00:00 | 00:00:00 | 00:00:00 | |
| SP4MAZ | 2026-08-31 12:27:15 | 52.61395 | 21.70798 | 349° | 7km/h | 24291m | 4.9m/s | -52.6°C | 1.1% | 30.3hPa | 0V | 00:00:00 | 00:00:00 | 00:00:00 | |
| SP3WXH-11 | 2026-08-31 12:27:13 | 52.61395 | 21.70804 | 217° | 4km/h | 24265m | 7.3m/s | -52.7°C | 1.1% | 30.5hPa | 0V | 00:00:00 | 00:00:00 | 00:00:00 | |
| SQ9EZE-15 | 2026-08-31 12:27:06 | 52.61395 | 21.70821 | 298° | 16km/h | 24235m | 5.4m/s | 0°C | 0% | 0hPa | 0V | 00:00:00 | 00:00:00 | 00:00:00 | |
| SP4MAZ | 2026-08-31 12:26:45 | 52.61363 | 21.70876 | 337° | 16km/h | 24103m | 5.5m/s | -52.5°C | 1.1% | 31.3hPa | 0V | 00:00:00 | 00:00:00 | 00:00:00 | |
| SP3WXH-11 | 2026-08-31 12:26:42 | 52.61346 | 21.70891 | 347° | 15km/h | 24070m | 6.7m/s | -52.6°C | 1.1% | 31.4hPa | 0V | 00:00:00 | 00:00:00 | 00:00:00 | |
| SP4MAZ | 2026-08-31 12:26:22 | 52.61313 | 21.70927 | 334° | 9km/h | 23955m | 6.1m/s | -52.6°C | 1.2% | 32.0hPa | 0V | 00:00:00 | 00:00:00 | 00:00:00 | |
| SP3BTT-10 | 2026-08-31 12:26:13 | 52.61307 | 21.70944 | 152° | 5km/h | 23892m | 5.0m/s | 0°C | 0% | 0hPa | 0V | 00:00:00 | 00:00:00 | 00:00:00 | |
| SP4MAZ | 2026-08-31 12:26:01 | 52.61301 | 21.70936 | 0° | 0km/h | 23823m | 6.2m/s | -52.5°C | 1.2% | 32.6hPa | 0V | 00:00:00 | 00:00:00 | 00:00:00 | |
| SP3WXH-11 | 2026-08-31 12:25:40 | 52.61298 | 21.70900 | 24° | 2km/h | 23685m | 7.2m/s | -52.8°C | 1.2% | 33.3hPa | 0V | 00:00:00 | 00:00:00 | 00:00:00 | |
| SP4MAZ | 2026-08-31 12:25:28 | 52.61288 | 21.70875 | 87° | 9km/h | 23621m | 6.0m/s | -52.8°C | 1.2% | 33.6hPa | 0V | 00:00:00 | 00:00:00 | 00:00:00 | |
| SP3BTT-10 | 2026-08-31 12:25:13 | 52.61290 | 21.70875 | 123° | 5km/h | 23522m | 7.0m/s | 0°C | 0% | 0hPa | 0V | 00:00:00 | 00:00:00 | 00:00:00 | |
| SP4MAZ | 2026-08-31 12:25:08 | 52.61296 | 21.70875 | 244° | 7km/h | 23499m | 6.5m/s | -52.6°C | 1.1% | 34.3hPa | 0V | 00:00:00 | 00:00:00 | 00:00:00 | |
| SP4MAZ | 2026-08-31 12:24:48 | 52.61334 | 21.70911 | 62° | 5km/h | 23378m | 7.4m/s | -52.6°C | 1.2% | 35.0hPa | 0V | 00:00:00 | 00:00:00 | 00:00:00 | |
| SP3WXH-11 | 2026-08-31 12:24:38 | 52.61334 | 21.70895 | 35° | 9km/h | 23306m | 6.5m/s | -52.4°C | 1.2% | 35.3hPa | 0V | 00:00:00 | 00:00:00 | 00:00:00 | |
| SP4MAZ | 2026-08-31 12:24:26 | 52.61331 | 21.70852 | 127° | 9km/h | 23249m | 5.2m/s | -52.6°C | 1.2% | 35.6hPa | 0V | 00:00:00 | 00:00:00 | 00:00:00 | |
| SQ9EZE-16 | 2026-08-31 12:24:23 | 52.61333 | 21.70849 | 197° | 4km/h | 23232m | 6.6m/s | -52.7°C | 0% | 0hPa | 0V | 00:00:00 | 00:00:00 | 00:00:00 | |
| SP3WXH-11 | 2026-08-31 12:24:07 | 52.61317 | 21.70762 | 144° | 7km/h | 23127m | 5.3m/s | -52.9°C | 1.2% | 36.3hPa | 0V | 00:00:00 | 00:00:00 | 00:00:00 | |
| SQ9EZE-16 | 2026-08-31 12:23:50 | 52.61313 | 21.70698 | 95° | 7km/h | 23042m | 6.3m/s | -53.3°C | 0% | 0hPa | 0V | 00:00:00 | 00:00:00 | 00:00:00 | |
| SP3WXH-11 | 2026-08-31 12:23:35 | 52.61303 | 21.70617 | 111° | 13km/h | 22950m | 6.4m/s | -53.6°C | 1.3% | 37.4hPa | 0V | 00:00:00 | 00:00:00 | 00:00:00 | |
| SP4MAZ | 2026-08-31 12:23:34 | 52.61303 | 21.70617 | 112° | 15km/h | 22950m | 6.4m/s | -53.6°C | 1.3% | 37.4hPa | 0V | 00:00:00 | 00:00:00 | 00:00:00 | |
| SQ9EZE-16 | 2026-08-31 12:23:17 | 52.61320 | 21.70578 | 184° | 7km/h | 22843m | 4.9m/s | 0°C | 0% | 0hPa | 0V | 00:00:00 | 00:00:00 | 00:00:00 | |
| SP4MAZ | 2026-08-31 12:23:11 | 52.61325 | 21.70580 | 177° | 9km/h | 22813m | 5.9m/s | -53.3°C | 1.3% | 38.2hPa | 0V | 00:00:00 | 00:00:00 | 00:00:00 | |
| SP3WXH-11 | 2026-08-31 12:23:04 | 52.61347 | 21.70576 | 211° | 5km/h | 22764m | 5.3m/s | -53.1°C | 1.2% | 38.4hPa | 0V | 00:00:00 | 00:00:00 | 00:00:00 | |
| SQ9EZE-15 | 2026-08-31 12:23:03 | 52.61347 | 21.70575 | 213° | 7km/h | 22764m | 5.3m/s | 0°C | 0% | 0hPa | 0V | 00:00:00 | 00:00:00 | 00:00:00 | |
| SQ9EZE-16 | 2026-08-31 12:22:56 | 52.61367 | 21.70584 | 189° | 15km/h | 22724m | 5.3m/s | 0°C | 0% | 0hPa | 0V | 00:00:00 | 00:00:00 | 00:00:00 | |
| SP4MAZ | 2026-08-31 12:22:51 | 52.61390 | 21.70587 | 167° | 18km/h | 22695m | 5.5m/s | -53.0°C | 1.2% | 38.8hPa | 0V | 00:00:00 | 00:00:00 | 00:00:00 | |
| SQ9EZE-16 | 2026-08-31 12:22:39 | 52.61447 | 21.70558 | 150° | 27km/h | 22624m | 5.0m/s | 0°C | 0% | 0hPa | 0V | 00:00:00 | 00:00:00 | 00:00:00 | |
| SP3WXH-11 | 2026-08-31 12:22:33 | 52.61482 | 21.70508 | 135° | 18km/h | 22585m | 6.4m/s | -52.8°C | 1.2% | 39.5hPa | 0V | 00:00:00 | 00:00:00 | 00:00:00 | |
| SQ9EZE-16 | 2026-08-31 12:22:23 | 52.61517 | 21.70444 | 124° | 26km/h | 22531m | 6.6m/s | 0°C | 0% | 0hPa | 0V | 00:00:00 | 00:00:00 | 00:00:00 | |
| SP4MAZ | 2026-08-31 12:22:11 | 52.61559 | 21.70344 | 119° | 22km/h | 22464m | 5.6m/s | -52.6°C | 1.2% | 40.2hPa | 0V | 00:00:00 | 00:00:00 | 00:00:00 | |
| SQ9EZE-16 | 2026-08-31 12:22:03 | 52.61571 | 21.70278 | 105° | 24km/h | 22418m | 5.7m/s | 0°C | 0% | 0hPa | 0V | 00:00:00 | 00:00:00 | 00:00:00 | |
| SP3WXH-11 | 2026-08-31 12:22:02 | 52.61572 | 21.70259 | 84° | 18km/h | 22406m | 6.2m/s | -52.5°C | 1.2% | 40.6hPa | 0V | 00:00:00 | 00:00:00 | 00:00:00 | |
| SP4MAZ | 2026-08-31 12:21:49 | 52.61560 | 21.70160 | 76° | 20km/h | 22336m | 6.7m/s | -52.4°C | 1.2% | 41.0hPa | 0V | 00:00:00 | 00:00:00 | 00:00:00 | |
| SQ9EZE-16 | 2026-08-31 12:21:48 | 52.61559 | 21.70153 | 72° | 20km/h | 22330m | 5.6m/s | 0°C | 0% | 0hPa | 0V | 00:00:00 | 00:00:00 | 00:00:00 | |
| SQ9EZE-16 | 2026-08-31 12:21:32 | 52.61521 | 21.70020 | 43° | 27km/h | 22236m | 6.7m/s | 0°C | 0% | 0hPa | 0V | 00:00:00 | 00:00:00 | 00:00:00 | |
| SP3WXH-11 | 2026-08-31 12:21:31 | 52.61513 | 21.70007 | 45° | 18km/h | 22223m | 4.5m/s | -52.8°C | 1.2% | 41.8hPa | 0V | 00:00:00 | 00:00:00 | 00:00:00 | |
| SP4MAZ | 2026-08-31 12:21:17 | 52.61463 | 21.69920 | 17° | 13km/h | 22149m | 5.3m/s | -53.1°C | 1.3% | 42.2hPa | 0V | 00:00:00 | 00:00:00 | 00:00:00 | |
| SQ9EZE-16 | 2026-08-31 12:21:16 | 52.61459 | 21.69919 | 2° | 16km/h | 22144m | 5.8m/s | 0°C | 0% | 0hPa | 0V | 00:00:00 | 00:00:00 | 00:00:00 | |
| SQ9EZE-15 | 2026-08-31 12:21:04 | 52.61434 | 21.69892 | 47° | 11km/h | 22073m | 7.0m/s | 0°C | 0% | 0hPa | 0V | 00:00:00 | 00:00:00 | 00:00:00 | |
| SP3WXH-11 | 2026-08-31 12:21:00 | 52.61429 | 21.69877 | 94° | 4km/h | 22043m | 5.0m/s | -53.1°C | 1.3% | 43.0hPa | 0V | 00:00:00 | 00:00:00 | 00:00:00 | |
| SP4MAZ | 2026-08-31 12:20:54 | 52.61417 | 21.69865 | 9° | 13km/h | 22013m | 6.1m/s | -53.1°C | 1.3% | 43.1hPa | 0V | 00:00:00 | 00:00:00 | 00:00:00 | |
| SP4MAZ | 2026-08-31 12:20:33 | 52.61372 | 21.69800 | 88° | 9km/h | 21889m | 5.4m/s | -53.1°C | 1.3% | 44.0hPa | 0V | 00:00:00 | 00:00:00 | 00:00:00 | |
| SP3WXH-11 | 2026-08-31 12:20:29 | 52.61373 | 21.69776 | 69° | 13km/h | 21861m | 4.5m/s | -53.2°C | 1.3% | 44.2hPa | 0V | 00:00:00 | 00:00:00 | 00:00:00 | |
| SP4MAZ | 2026-08-31 12:20:11 | 52.61356 | 21.69679 | 54° | 18km/h | 21763m | 4.7m/s | -53.1°C | 1.3% | 44.9hPa | 0V | 00:00:00 | 00:00:00 | 00:00:00 | |
| SP3WXH-11 | 2026-08-31 12:19:58 | 52.61325 | 21.69591 | 31° | 20km/h | 21687m | 7.1m/s | -53.0°C | 1.3% | 45.4hPa | 0V | 00:00:00 | 00:00:00 | 00:00:00 | |
| SP4MAZ | 2026-08-31 12:19:49 | 52.61287 | 21.69567 | 22° | 20km/h | 21643m | 5.3m/s | -53.2°C | 1.3% | 45.7hPa | 0V | 00:00:00 | 00:00:00 | 00:00:00 | |
| SP3WXH-11 | 2026-08-31 12:19:27 | 52.61190 | 21.69527 | 349° | 11km/h | 21512m | 4.8m/s | -53.0°C | 1.3% | 46.6hPa | 0V | 00:00:00 | 00:00:00 | 00:00:00 | |
| SP4MAZ | 2026-08-31 12:19:18 | 52.61179 | 21.69524 | 4° | 7km/h | 21468m | 6.3m/s | -52.9°C | 1.3% | 46.9hPa | 0V | 00:00:00 | 00:00:00 | 00:00:00 | |
| SP3WXH-11 | 2026-08-31 12:18:56 | 52.61141 | 21.69558 | 4° | 9km/h | 21345m | 4.8m/s | -52.8°C | 1.3% | 47.9hPa | 0V | 00:00:00 | 00:00:00 | 00:00:00 | |
| SP4MAZ | 2026-08-31 12:18:37 | 52.61145 | 21.69532 | 36° | 9km/h | 21243m | 4.2m/s | -52.8°C | 1.3% | 48.6hPa | 0V | 00:00:00 | 00:00:00 | 00:00:00 | |
| SP3WXH-11 | 2026-08-31 12:18:25 | 52.61159 | 21.69501 | 117° | 13km/h | 21177m | 6.4m/s | -52.9°C | 1.3% | 49.1hPa | 0V | 00:00:00 | 00:00:00 | 00:00:00 | |
| SP4MAZ | 2026-08-31 12:18:14 | 52.61164 | 21.69457 | 99° | 18km/h | 21121m | 4.3m/s | -53.0°C | 1.3% | 49.5hPa | 0V | 00:00:00 | 00:00:00 | 00:00:00 | |
| SP3WXH-11 | 2026-08-31 12:17:54 | 52.61163 | 21.69296 | 73° | 15km/h | 21009m | 6.4m/s | -53.1°C | 1.3% | 50.4hPa | 0V | 00:00:00 | 00:00:00 | 00:00:00 | |
| SP4MAZ | 2026-08-31 12:17:24 | 52.61054 | 21.69098 | 30° | 22km/h | 20844m | 4.8m/s | -53.3°C | 1.4% | 51.7hPa | 0V | 00:00:00 | 00:00:00 | 00:00:00 | |
| SP4MAZ | 2026-08-31 12:17:03 | 52.60931 | 21.69050 | 4° | 22km/h | 20730m | 6.4m/s | -53.4°C | 1.3% | 52.6hPa | 0V | 00:00:00 | 00:00:00 | 00:00:00 | |
| SP3WXH-11 | 2026-08-31 12:16:53 | 52.60898 | 21.69058 | 310° | 7km/h | 20663m | 3.8m/s | -53.2°C | 1.3% | 53.2hPa | 0V | 00:00:00 | 00:00:00 | 00:00:00 | |
| SP4MAZ | 2026-08-31 12:16:42 | 52.60884 | 21.69058 | 91° | 4km/h | 20613m | 4.4m/s | -53.1°C | 1.4% | 53.5hPa | 0V | 00:00:00 | 00:00:00 | 00:00:00 | |
| SP3WXH-11 | 2026-08-31 12:16:21 | 52.60905 | 21.69051 | 114° | 4km/h | 20487m | 4.9m/s | -53.0°C | 1.3% | 54.6hPa | 0V | 00:00:00 | 00:00:00 | 00:00:00 | |
| SP3WXH-11 | 2026-08-31 12:15:50 | 52.60897 | 21.69159 | 276° | 18km/h | 20323m | 5.1m/s | -52.9°C | 1.3% | 56.0hPa | 0V | 00:00:00 | 00:00:00 | 00:00:00 | |
| SQ9EZE-15 | 2026-08-31 12:15:44 | 52.60903 | 21.69188 | 243° | 7km/h | 20296m | 5.5m/s | 0°C | 0% | 0hPa | 0V | 00:00:00 | 00:00:00 | 00:00:00 | |
| SP4MAZ | 2026-08-31 12:15:41 | 52.60908 | 21.69193 | 180° | 11km/h | 20279m | 4.1m/s | -52.7°C | 0% | 56.4hPa | 0V | 00:00:00 | 00:00:00 | 00:00:00 | |
| SP4MAZ | 2026-08-31 12:15:21 | 52.60961 | 21.69184 | 133° | 15km/h | 20163m | 5.2m/s | -53.1°C | 0% | 57.4hPa | 0V | 00:00:00 | 00:00:00 | 00:00:00 | |
| SP3WXH-11 | 2026-08-31 12:15:19 | 52.60974 | 21.69163 | 139° | 20km/h | 20142m | 4.8m/s | -53.1°C | 1.4% | 57.6hPa | 0V | 00:00:00 | 00:00:00 | 00:00:00 | |
| SP3WXH-11 | 2026-08-31 12:14:48 | 52.61001 | 21.69027 | 66° | 9km/h | 19972m | 6.6m/s | -53.0°C | 1.4% | 59.2hPa | 0V | 00:00:00 | 00:00:00 | 00:00:00 | |
| SP4MAZ | 2026-08-31 12:14:27 | 52.61003 | 21.68993 | 115° | 13km/h | 19865m | 6.0m/s | -52.8°C | 1.4% | 60.2hPa | 0V | 00:00:00 | 00:00:00 | 00:00:00 | |
| SP3WXH-11 | 2026-08-31 12:14:17 | 52.61007 | 21.68961 | 79° | 11km/h | 19796m | 5.0m/s | -52.6°C | 1.4% | 60.8hPa | 0V | 00:00:00 | 00:00:00 | 00:00:00 | |
| SP4MAZ | 2026-08-31 12:14:03 | 52.61018 | 21.68899 | 108° | 15km/h | 19728m | 4.2m/s | -52.5°C | 0% | 61.4hPa | 0V | 00:00:00 | 00:00:00 | 00:00:00 | |
| SP3WXH-11 | 2026-08-31 12:13:46 | 52.61069 | 21.68740 | 115° | 29km/h | 19626m | 4.2m/s | -52.6°C | 1.4% | 62.4hPa | 0V | 00:00:00 | 00:00:00 | 00:00:00 | |
| SP4MAZ | 2026-08-31 12:13:31 | 52.61097 | 21.68620 | 110° | 20km/h | 19550m | 4.8m/s | -52.6°C | 1.3% | 63.1hPa | 0V | 00:00:00 | 00:00:00 | 00:00:00 | |
| SP3WXH-11 | 2026-08-31 12:13:15 | 52.61076 | 21.68455 | 66° | 20km/h | 19450m | 6.2m/s | -53.1°C | 1.4% | 64.1hPa | 0V | 00:00:00 | 00:00:00 | 00:00:00 | |
| SP4MAZ | 2026-08-31 12:13:10 | 52.61069 | 21.68430 | 65° | 20km/h | 19433m | 6.7m/s | -53.4°C | 0% | 64.2hPa | 0V | 00:00:00 | 00:00:00 | 00:00:00 | |
| SP4MAZ | 2026-08-31 12:12:50 | 52.61000 | 21.68311 | 54° | 24km/h | 19330m | 6.6m/s | -53.8°C | 0% | 65.3hPa | 0V | 00:00:00 | 00:00:00 | 00:00:00 | |
| SP3WXH-11 | 2026-08-31 12:12:44 | 52.60977 | 21.68275 | 27° | 13km/h | 19287m | 4.7m/s | -53.9°C | 1.5% | 65.8hPa | 0V | 00:00:00 | 00:00:00 | 00:00:00 | |
| SP4MAZ | 2026-08-31 12:12:19 | 52.60896 | 21.68127 | 46° | 22km/h | 19162m | 6.1m/s | -53.7°C | 1.5% | 67.0hPa | 0V | 00:00:00 | 00:00:00 | 00:00:00 | |
| SP3WXH-11 | 2026-08-31 12:12:13 | 52.60862 | 21.68070 | 48° | 18km/h | 19119m | 6.4m/s | -53.6°C | 1.4% | 67.5hPa | 0V | 00:00:00 | 00:00:00 | 00:00:00 | |
| SP4MAZ | 2026-08-31 12:11:57 | 52.60829 | 21.67957 | 59° | 26km/h | 19040m | 5.2m/s | -53.3°C | 0% | 68.3hPa | 0V | 00:00:00 | 00:00:00 | 00:00:00 | |
| SP3WXH-11 | 2026-08-31 12:11:41 | 52.60777 | 21.67825 | 34° | 26km/h | 18950m | 4.2m/s | -53.0°C | 1.4% | 69.2hPa | 0V | 00:00:00 | 00:00:00 | 00:00:00 | |
| SP4MAZ | 2026-08-31 12:11:37 | 52.60763 | 21.67808 | 45° | 18km/h | 18934m | 4.5m/s | -52.9°C | 0% | 69.4hPa | 0V | 00:00:00 | 00:00:00 | 00:00:00 | |
| SP3WXH-11 | 2026-08-31 12:11:11 | 52.60621 | 21.67615 | 22° | 16km/h | 18789m | 4.9m/s | -52.8°C | 1.4% | 71.0hPa | 0V | 00:00:00 | 00:00:00 | 00:00:00 | |
| SP4MAZ | 2026-08-31 12:11:05 | 52.60608 | 21.67596 | 49° | 18km/h | 18767m | 6.4m/s | -52.8°C | 1.4% | 71.3hPa | 0V | 00:00:00 | 00:00:00 | 00:00:00 | |
| SP4MAZ | 2026-08-31 12:10:41 | 52.60483 | 21.67384 | 49° | 33km/h | 18635m | 5.5m/s | -53.3°C | 0% | 72.7hPa | 0V | 00:00:00 | 00:00:00 | 00:00:00 | |
| SP3WXH-11 | 2026-08-31 12:10:40 | 52.60473 | 21.67365 | 45° | 27km/h | 18624m | 6.3m/s | -53.3°C | 1.4% | 72.9hPa | 0V | 00:00:00 | 00:00:00 | 00:00:00 | |
| SP4MAZ | 2026-08-31 12:10:16 | 52.60345 | 21.67130 | 44° | 33km/h | 18507m | 6.7m/s | -53.5°C | 0% | 74.2hPa | 0V | 00:00:00 | 00:00:00 | 00:00:00 | |
| SP3WXH-11 | 2026-08-31 12:10:08 | 52.60281 | 21.67049 | 37° | 37km/h | 18457m | 4.3m/s | -53.3°C | 1.5% | 74.8hPa | 0V | 00:00:00 | 00:00:00 | 00:00:00 | |
| SP3WXH-11 | 2026-08-31 12:09:38 | 52.60071 | 21.66859 | 19° | 31km/h | 18291m | 6.6m/s | -53.7°C | 1.5% | 76.7hPa | 0V | 00:00:00 | 00:00:00 | 00:00:00 | |
| SP4MAZ | 2026-08-31 12:09:11 | 52.59941 | 21.66784 | 22° | 15km/h | 18160m | 5.4m/s | -54.3°C | 1.6% | 78.3hPa | 0V | 00:00:00 | 00:00:00 | 00:00:00 | |
| SP3WXH-11 | 2026-08-31 12:09:06 | 52.59931 | 21.66763 | 88° | 9km/h | 18127m | 4.8m/s | -54.5°C | 1.7% | 78.7hPa | 0V | 00:00:00 | 00:00:00 | 00:00:00 | |
| SP4MAZ | 2026-08-31 12:08:51 | 52.59910 | 21.66677 | 78° | 27km/h | 18052m | 4.7m/s | -55.0°C | 1.7% | 79.6hPa | 0V | 00:00:00 | 00:00:00 | 00:00:00 | |
| SP3WXH-11 | 2026-08-31 12:08:35 | 52.59874 | 21.66532 | 46° | 18km/h | 17962m | 6.3m/s | -54.2°C | 1.7% | 80.7hPa | 0V | 00:00:00 | 00:00:00 | 00:00:00 | |
| SP4MAZ | 2026-08-31 12:08:26 | 52.59854 | 21.66480 | 70° | 20km/h | 17921m | 6.2m/s | -53.8°C | 0% | 81.3hPa | 0V | 00:00:00 | 00:00:00 | 00:00:00 | |
| SP4MAZ | 2026-08-31 12:08:06 | 52.59796 | 21.66360 | 31° | 20km/h | 17815m | 6.2m/s | -53.9°C | 0% | 82.6hPa | 0V | 00:00:00 | 00:00:00 | 00:00:00 | |
| SP3WXH-11 | 2026-08-31 12:08:04 | 52.59786 | 21.66346 | 52° | 16km/h | 17801m | 5.9m/s | -53.8°C | 1.7% | 82.8hPa | 0V | 00:00:00 | 00:00:00 | 00:00:00 | |
| SP4MAZ | 2026-08-31 12:07:34 | 52.59738 | 21.66169 | 86° | 20km/h | 17646m | 5.6m/s | 0°C | 0% | 84.8hPa | 0V | 00:00:00 | 00:00:00 | 00:00:00 | |
| SP3WXH-11 | 2026-08-31 12:07:33 | 52.59737 | 21.66152 | 81° | 22km/h | 17635m | 6.3m/s | -53.8°C | 1.7% | 85.0hPa | 0V | 00:00:00 | 00:00:00 | 00:00:00 | |
| SP4MAZ | 2026-08-31 12:07:13 | 52.59702 | 21.65968 | 61° | 31km/h | 17537m | 4.1m/s | 0°C | 0% | 86.3hPa | 0V | 00:00:00 | 00:00:00 | 00:00:00 | |
| SP3WXH-11 | 2026-08-31 12:07:02 | 52.59658 | 21.65826 | 67° | 31km/h | 17469m | 4.1m/s | -53.5°C | 1.7% | 87.1hPa | 0V | 00:00:00 | 00:00:00 | 00:00:00 | |
| SP4MAZ | 2026-08-31 12:06:51 | 52.59627 | 21.65667 | 71° | 35km/h | 17417m | 5.2m/s | -53.5°C | 0% | 87.9hPa | 0V | 00:00:00 | 00:00:00 | 00:00:00 | |
| SP3WXH-11 | 2026-08-31 12:06:31 | 52.59519 | 21.65334 | 59° | 49km/h | 17311m | 4.2m/s | -53.6°C | 1.7% | 89.3hPa | 0V | 00:00:00 | 00:00:00 | 00:00:00 | |
| SP4MAZ | 2026-08-31 12:06:30 | 52.59519 | 21.65334 | 60° | 51km/h | 17311m | 4.2m/s | -53.6°C | 0% | 89.3hPa | 0V | 00:00:00 | 00:00:00 | 00:00:00 | |
| SP4MAZ | 2026-08-31 12:06:09 | 52.59384 | 21.65039 | 59° | 35km/h | 17198m | 6.1m/s | -52.9°C | 0% | 90.9hPa | 0V | 00:00:00 | 00:00:00 | 00:00:00 | |
| SP3WXH-11 | 2026-08-31 12:06:00 | 52.59322 | 21.64918 | 57° | 31km/h | 17147m | 6.1m/s | -52.6°C | 1.7% | 91.6hPa | 0V | 00:00:00 | 00:00:00 | 00:00:00 | |
| SP4MAZ | 2026-08-31 12:05:35 | 52.59195 | 21.64683 | 62° | 24km/h | 17025m | 4.8m/s | 0°C | 0% | 93.3hPa | 0V | 00:00:00 | 00:00:00 | 00:00:00 | |
| SP3WXH-11 | 2026-08-31 12:05:29 | 52.59169 | 21.64613 | 59° | 26km/h | 16991m | 5.7m/s | -52.6°C | 1.6% | 93.9hPa | 0V | 00:00:00 | 00:00:00 | 00:00:00 | |
| SP4MAZ | 2026-08-31 12:05:05 | 52.59075 | 21.64460 | 44° | 26km/h | 16874m | 6.0m/s | -52.3°C | 0% | 95.6hPa | 0V | 00:00:00 | 00:00:00 | 00:00:00 | |
| SP3WXH-11 | 2026-08-31 12:04:58 | 52.59039 | 21.64412 | 26° | 29km/h | 16835m | 4.2m/s | -52.0°C | 1.6% | 96.1hPa | 0V | 00:00:00 | 00:00:00 | 00:00:00 | |
| SP4MAZ | 2026-08-31 12:04:44 | 52.58990 | 21.64328 | 67° | 24km/h | 16767m | 4.5m/s | -51.9°C | 0% | 97.2hPa | 0V | 00:00:00 | 00:00:00 | 00:00:00 | |
| SP3WXH-11 | 2026-08-31 12:04:27 | 52.58938 | 21.64185 | 59° | 20km/h | 16670m | 4.0m/s | -51.4°C | 1.6% | 98.6hPa | 0V | 00:00:00 | 00:00:00 | 00:00:00 | |
| SP4MAZ | 2026-08-31 12:04:19 | 52.58923 | 21.64132 | 75° | 27km/h | 16640m | 3.3m/s | -51.4°C | 0% | 99.1hPa | 0V | 00:00:00 | 00:00:00 | 00:00:00 | |
| SP3WXH-11 | 2026-08-31 12:03:56 | 52.58814 | 21.63819 | 55° | 40km/h | 16515m | 3.9m/s | -51.7°C | 1.7% | 101.0hPa | 0V | 00:00:00 | 00:00:00 | 00:00:00 | |
| SP4MAZ | 2026-08-31 12:03:37 | 52.58711 | 21.63598 | 49° | 35km/h | 16426m | 6.4m/s | -51.7°C | 0% | 102.4hPa | 0V | 00:00:00 | 00:00:00 | 00:00:00 | |
| SP3WXH-11 | 2026-08-31 12:03:25 | 52.58622 | 21.63428 | 46° | 40km/h | 16353m | 6.2m/s | -52.1°C | 1.7% | 103.5hPa | 0V | 00:00:00 | 00:00:00 | 00:00:00 | |
| SP4MAZ | 2026-08-31 12:03:03 | 52.58477 | 21.63228 | 42° | 33km/h | 16249m | 5.1m/s | 0°C | 0% | 105.2hPa | 0V | 00:00:00 | 00:00:00 | 00:00:00 | |
| SP3WXH-11 | 2026-08-31 12:02:54 | 52.58426 | 21.63127 | 61° | 37km/h | 16189m | 4.5m/s | -52.2°C | 1.8% | 106.2hPa | 0V | 00:00:00 | 00:00:00 | 00:00:00 | |
| SP3WXH-11 | 2026-08-31 12:02:23 | 52.58274 | 21.62684 | 51° | 46km/h | 16033m | 5.5m/s | -52.8°C | 1.9% | 108.8hPa | 0V | 00:00:00 | 00:00:00 | 00:00:00 | |
| SP4MAZ | 2026-08-31 12:02:08 | 52.58203 | 21.62497 | 65° | 37km/h | 15970m | 5.1m/s | 0°C | 0% | 109.8hPa | 0V | 00:00:00 | 00:00:00 | 00:00:00 | |
| SP3WXH-11 | 2026-08-31 12:01:52 | 52.58131 | 21.62266 | 65° | 33km/h | 15871m | 3.8m/s | -52.0°C | 1.9% | 111.5hPa | 0V | 00:00:00 | 00:00:00 | 00:00:00 | |
| SP4MAZ | 2026-08-31 12:01:24 | 52.58100 | 21.61817 | 80° | 49km/h | 15736m | 6.6m/s | -52.1°C | 0% | 113.8hPa | 0V | 00:00:00 | 00:00:00 | 00:00:00 | |
| SP3WXH-11 | 2026-08-31 12:01:21 | 52.58089 | 21.61707 | 83° | 58km/h | 15710m | 5.2m/s | -52.0°C | 1.9% | 114.3hPa | 0V | 00:00:00 | 00:00:00 | 00:00:00 | |
| SP4MAZ | 2026-08-31 12:01:03 | 52.58073 | 21.61314 | 81° | 66km/h | 15633m | 5.8m/s | -52.0°C | 0% | 115.7hPa | 0V | 00:00:00 | 00:00:00 | 00:00:00 | |
| SP3WXH-11 | 2026-08-31 12:00:50 | 52.58032 | 21.60923 | 72° | 62km/h | 15560m | 4.0m/s | -52.2°C | 2.1% | 117.0hPa | 0V | 00:00:00 | 00:00:00 | 00:00:00 | |
| SP4MAZ | 2026-08-31 12:00:43 | 52.58007 | 21.60798 | 72° | 60km/h | 15535m | 3.3m/s | -52.4°C | 0% | 117.4hPa | 0V | 00:00:00 | 00:00:00 | 00:00:00 | |
| SP4MAZ | 2026-08-31 12:00:22 | 52.57876 | 21.60224 | 62° | 69km/h | 15434m | 6.2m/s | -52.9°C | 0% | 119.3hPa | 0V | 00:00:00 | 00:00:00 | 00:00:00 | |
| SP3WXH-11 | 2026-08-31 12:00:19 | 52.57831 | 21.60094 | 59° | 69km/h | 15409m | 5.9m/s | -53.2°C | 2.3% | 119.8hPa | 0V | 00:00:00 | 00:00:00 | 00:00:00 | |
| SP3WXH-11 | 2026-08-31 11:59:48 | 52.57537 | 21.59462 | 58° | 49km/h | 15251m | 5.5m/s | -53.9°C | 2.7% | 122.8hPa | 0V | 00:00:00 | 00:00:00 | 00:00:00 | |
| SP3WXH-11 | 2026-08-31 11:59:16 | 52.57359 | 21.59015 | 57° | 37km/h | 15092m | 6.2m/s | -54.0°C | 2.6% | 125.8hPa | 0V | 00:00:00 | 00:00:00 | 00:00:00 | |
| SP4MAZ | 2026-08-31 11:59:08 | 52.57336 | 21.58928 | 72° | 33km/h | 15055m | 6.2m/s | -53.7°C | 0% | 126.5hPa | 0V | 00:00:00 | 00:00:00 | 00:00:00 | |
| SP3WXH-11 | 2026-08-31 11:58:46 | 52.57273 | 21.58593 | 71° | 33km/h | 14933m | 5.3m/s | -53.3°C | 2.4% | 128.9hPa | 0V | 00:00:00 | 00:00:00 | 00:00:00 | |
| SP4MAZ | 2026-08-31 11:58:45 | 52.57273 | 21.58593 | 73° | 33km/h | 14934m | 5.3m/s | -53.3°C | 0% | 128.9hPa | 0V | 00:00:00 | 00:00:00 | 00:00:00 | |
| SP4MAZ | 2026-08-31 11:58:21 | 52.57216 | 21.58212 | 75° | 51km/h | 14815m | 4.0m/s | 0°C | 0% | 131.3hPa | 0V | 00:00:00 | 00:00:00 | 00:00:00 | |
| SP3WXH-11 | 2026-08-31 11:58:15 | 52.57180 | 21.58053 | 75° | 51km/h | 14774m | 6.9m/s | -53.6°C | 2.7% | 132.2hPa | 0V | 00:00:00 | 00:00:00 | 00:00:00 | |
| SP4MAZ | 2026-08-31 11:57:47 | 52.57117 | 21.57518 | 80° | 60km/h | 14636m | 6.7m/s | 0°C | 0% | 135.1hPa | 0V | 00:00:00 | 00:00:00 | 00:00:00 | |
| SP3WXH-11 | 2026-08-31 11:57:44 | 52.57104 | 21.57394 | 77° | 62km/h | 14610m | 5.8m/s | -54.3°C | 2.9% | 135.6hPa | 0V | 00:00:00 | 00:00:00 | 00:00:00 | |
| SP4MAZ | 2026-08-31 11:57:26 | 52.57047 | 21.56973 | 78° | 71km/h | 14526m | 4.6m/s | 0°C | 0% | 137.4hPa | 0V | 00:00:00 | 00:00:00 | 00:00:00 | |
| SP3WXH-11 | 2026-08-31 11:57:13 | 52.56996 | 21.56578 | 78° | 69km/h | 14451m | 5.3m/s | -54.2°C | 2.7% | 139.0hPa | 0V | 00:00:00 | 00:00:00 | 00:00:00 | |
| SP4MAZ | 2026-08-31 11:56:50 | 52.56932 | 21.56096 | 82° | 57km/h | 14341m | 5.3m/s | 0°C | 0% | 141.4hPa | 0V | 00:00:00 | 00:00:00 | 00:00:00 | |
| SP3WXH-11 | 2026-08-31 11:56:41 | 52.56906 | 21.55883 | 90° | 53km/h | 14290m | 7.4m/s | -53.4°C | 2.7% | 142.5hPa | 0V | 00:00:00 | 00:00:00 | 00:00:00 | |
| SP4MAZ | 2026-08-31 11:56:31 | 52.56905 | 21.55649 | 79° | 58km/h | 14228m | 7.2m/s | 0°C | 0% | 143.9hPa | 0V | 00:00:00 | 00:00:00 | 00:00:00 | |
| SP4MAZ | 2026-08-31 11:56:11 | 52.56874 | 21.55159 | 96° | 60km/h | 14120m | 6.7m/s | 0°C | 0% | 146.4hPa | 0V | 00:00:00 | 00:00:00 | 00:00:00 | |
| SP3WXH-11 | 2026-08-31 11:56:10 | 52.56875 | 21.55133 | 93° | 66km/h | 14114m | 5.1m/s | -52.2°C | 2.7% | 146.5hPa | 0V | 00:00:00 | 00:00:00 | 00:00:00 | |
| SP4MAZ | 2026-08-31 11:55:48 | 52.56877 | 21.54454 | 95° | 84km/h | 13990m | 7.7m/s | 0°C | 0% | 149.3hPa | 0V | 00:00:00 | 00:00:00 | 00:00:00 | |
| SP3WXH-11 | 2026-08-31 11:55:39 | 52.56878 | 21.54144 | 84° | 86km/h | 13936m | 3.6m/s | -51.7°C | 2.8% | 150.6hPa | 0V | 00:00:00 | 00:00:00 | 00:00:00 | |
| SP4MAZ | 2026-08-31 11:55:28 | 52.56856 | 21.53747 | 88° | 89km/h | 13875m | 5.2m/s | 0°C | 0% | 152.0hPa | 0V | 00:00:00 | 00:00:00 | 00:00:00 | |
| SP3WXH-11 | 2026-08-31 11:55:08 | 52.56825 | 21.52954 | 82° | 104km/h | 13774m | 4.5m/s | -53.2°C | 3.7% | 154.4hPa | 0V | 00:00:00 | 00:00:00 | 00:00:00 | |
| SP4MAZ | 2026-08-31 11:54:54 | 52.56761 | 21.52384 | 79° | 106km/h | 13709m | 5.8m/s | 0°C | 0% | 156.0hPa | 0V | 00:00:00 | 00:00:00 | 00:00:00 | |
| SP3WXH-11 | 2026-08-31 11:54:37 | 52.56659 | 21.51582 | 74° | 110km/h | 13618m | 4.3m/s | -56.4°C | 4.9% | 158.2hPa | 0V | 00:00:00 | 00:00:00 | 00:00:00 | |
| SP4MAZ | 2026-08-31 11:54:32 | 52.56623 | 21.51404 | 72° | 111km/h | 13599m | 5.7m/s | 0°C | 0% | 158.7hPa | 0V | 00:00:00 | 00:00:00 | 00:00:00 | |
| SP4MAZ | 2026-08-31 11:54:12 | 52.56420 | 21.50554 | 70° | 111km/h | 13502m | 6.5m/s | 0°C | 0% | 161.0hPa | 0V | 00:00:00 | 00:00:00 | 00:00:00 | |
| SP3WXH-11 | 2026-08-31 11:54:06 | 52.56345 | 21.50274 | 67° | 95km/h | 13462m | 4.6m/s | -57.3°C | 5.6% | 162.1hPa | 0V | 00:00:00 | 00:00:00 | 00:00:00 | |
| SP4MAZ | 2026-08-31 11:53:52 | 52.56197 | 21.49765 | 70° | 99km/h | 13390m | 5.0m/s | 0°C | 0% | 164.0hPa | 0V | 00:00:00 | 00:00:00 | 00:00:00 | |
| SP3WXH-11 | 2026-08-31 11:53:35 | 52.56031 | 21.49172 | 65° | 86km/h | 13308m | 3.9m/s | -57.2°C | 5.7% | 166.1hPa | 0V | 00:00:00 | 00:00:00 | 00:00:00 | |
| SP4MAZ | 2026-08-31 11:53:21 | 52.55897 | 21.48769 | 63° | 88km/h | 13249m | 4.8m/s | 0°C | 0% | 167.7hPa | 0V | 00:00:00 | 00:00:00 | 00:00:00 | |
| SP3WXH-11 | 2026-08-31 11:53:04 | 52.55710 | 21.48221 | 52° | 82km/h | 13155m | 3.9m/s | -56.7°C | 5.6% | 170.2hPa | 0V | 00:00:00 | 00:00:00 | 00:00:00 | |
| SP4MAZ | 2026-08-31 11:53:00 | 52.55670 | 21.48144 | 49° | 82km/h | 13138m | 7.4m/s | 0°C | 0% | 0hPa | 0V | 00:00:00 | 00:00:00 | 00:00:00 | |
| SP4MAZ | 2026-08-31 11:52:36 | 52.55476 | 21.47460 | 70° | 84km/h | 13004m | 4.9m/s | 0°C | 0% | 174.5hPa | 0V | 00:00:00 | 00:00:00 | 00:00:00 | |
| SP3WXH-11 | 2026-08-31 11:52:33 | 52.55447 | 21.47341 | 68° | 75km/h | 12986m | 5.0m/s | -55.4°C | 5.2% | 175.0hPa | 0V | 00:00:00 | 00:00:00 | 00:00:00 | |
| SP4MAZ | 2026-08-31 11:52:17 | 52.55341 | 21.46891 | 57° | 91km/h | 12883m | 7.1m/s | 0°C | 0% | 177.6hPa | 0V | 00:00:00 | 00:00:00 | 00:00:00 | |
| SP3WXH-11 | 2026-08-31 11:52:02 | 52.55214 | 21.46407 | 63° | 95km/h | 12773m | 5.7m/s | -53.6°C | 4.7% | 180.7hPa | 0V | 00:00:00 | 00:00:00 | 00:00:00 | |
| SP4MAZ | 2026-08-31 11:51:46 | 52.55078 | 21.45910 | 76° | 102km/h | 12669m | 7.4m/s | 0°C | 0% | 0hPa | 0V | 00:00:00 | 00:00:00 | 00:00:00 | |
| SP3WXH-11 | 2026-08-31 11:51:31 | 52.54958 | 21.45326 | 82° | 75km/h | 12557m | 6.5m/s | -52.0°C | 4.7% | 186.8hPa | 0V | 00:00:00 | 00:00:00 | 00:00:00 | |
| SP4MAZ | 2026-08-31 11:51:26 | 52.54944 | 21.45230 | 72° | 91km/h | 12534m | 6.8m/s | 0°C | 0% | 0hPa | 0V | 00:00:00 | 00:00:00 | 00:00:00 | |
| SP4MAZ | 2026-08-31 11:51:05 | 52.54869 | 21.44391 | 89° | 95km/h | 12401m | 4.2m/s | 0°C | 0% | 191.3hPa | 0V | 00:00:00 | 00:00:00 | 00:00:00 | |
| SP3WXH-11 | 2026-08-31 11:51:00 | 52.54854 | 21.44124 | 85° | 91km/h | 12368m | 5.0m/s | -52.2°C | 5.0% | 192.3hPa | 0V | 00:00:00 | 00:00:00 | 00:00:00 | |
| SP4MAZ | 2026-08-31 11:50:45 | 52.54810 | 21.43616 | 85° | 84km/h | 12297m | 6.5m/s | 0°C | 0% | 194.5hPa | 0V | 00:00:00 | 00:00:00 | 00:00:00 | |
| SP3WXH-11 | 2026-08-31 11:50:29 | 52.54764 | 21.43006 | 82° | 99km/h | 12210m | 6.8m/s | -53.0°C | 6.6% | 197.1hPa | 0V | 00:00:00 | 00:00:00 | 00:00:00 | |
| SP4MAZ | 2026-08-31 11:50:07 | 52.54718 | 21.42243 | 84° | 99km/h | 12082m | 3.8m/s | 0°C | 0% | 201.1hPa | 0V | 00:00:00 | 00:00:00 | 00:00:00 | |
| SP3WXH-11 | 2026-08-31 11:49:58 | 52.54698 | 21.41803 | 83° | 91km/h | 12009m | 6.1m/s | -52.7°C | 9.3% | 203.4hPa | 0V | 00:00:00 | 00:00:00 | 00:00:00 | |
| SP4MAZ | 2026-08-31 11:49:47 | 52.54690 | 21.41473 | 89° | 100km/h | 11952m | 6.9m/s | 0°C | 0% | 205.2hPa | 0V | 00:00:00 | 00:00:00 | 00:00:00 | |
| SP3WXH-11 | 2026-08-31 11:49:27 | 52.54632 | 21.40508 | 85° | 108km/h | 11839m | 5.3m/s | -53.2°C | 16.4% | 208.8hPa | 0V | 00:00:00 | 00:00:00 | 00:00:00 | |
| SP4MAZ | 2026-08-31 11:49:11 | 52.54595 | 21.39926 | 89° | 91km/h | 11773m | 4.5m/s | 0°C | 0% | 210.9hPa | 0V | 00:00:00 | 00:00:00 | 00:00:00 | |
| SP3WXH-11 | 2026-08-31 11:48:56 | 52.54539 | 21.39221 | 81° | 113km/h | 11678m | 5.0m/s | -55.5°C | 36.4% | 214.0hPa | 0V | 00:00:00 | 00:00:00 | 00:00:00 | |
| SP4MAZ | 2026-08-31 11:48:47 | 52.54519 | 21.38893 | 87° | 113km/h | 11641m | 3.3m/s | 0°C | 0% | 215.2hPa | 0V | 00:00:00 | 00:00:00 | 00:00:00 | |
| SP3WXH-11 | 2026-08-31 11:48:25 | 52.54444 | 21.37878 | 85° | 93km/h | 11502m | 6.5m/s | -57.4°C | 57.1% | 220.1hPa | 0V | 00:00:00 | 00:00:00 | 00:00:00 | |
| SP3WXH-11 | 2026-08-31 11:47:54 | 52.54341 | 21.36585 | 78° | 100km/h | 11323m | 6.6m/s | -56.3°C | 58.6% | 226.4hPa | 0V | 00:00:00 | 00:00:00 | 00:00:00 | |
| SP3WXH-11 | 2026-08-31 11:47:23 | 52.54170 | 21.35267 | 66° | 89km/h | 11147m | 7.6m/s | -55.5°C | 53.3% | 232.8hPa | 0V | 00:00:00 | 00:00:00 | 00:00:00 | |
| SP4MAZ | 2026-08-31 11:47:20 | 52.54161 | 21.35232 | 66° | 93km/h | 11139m | 7.9m/s | 0°C | 0% | 0hPa | 0V | 00:00:00 | 00:00:00 | 00:00:00 | |
| SP3WXH-11 | 2026-08-31 11:46:51 | 52.53904 | 21.34057 | 65° | 89km/h | 10979m | 4.6m/s | -54.1°C | 53.0% | 239.1hPa | 0V | 00:00:00 | 00:00:00 | 00:00:00 | |
| SP4MAZ | 2026-08-31 11:46:36 | 52.53835 | 21.33509 | 81° | 95km/h | 10892m | 5.3m/s | 0°C | 0% | 0hPa | 0V | 00:00:00 | 00:00:00 | 00:00:00 | |
| SP3WXH-11 | 2026-08-31 11:46:20 | 52.53759 | 21.32877 | 69° | 89km/h | 10788m | 5.2m/s | -52.5°C | 56.3% | 246.2hPa | 0V | 00:00:00 | 00:00:00 | 00:00:00 | |
| SP4MAZ | 2026-08-31 11:46:14 | 52.53699 | 21.32652 | 73° | 97km/h | 10753m | 5.5m/s | 0°C | 0% | 0hPa | 0V | 00:00:00 | 00:00:00 | 00:00:00 | |
| SP3WXH-11 | 2026-08-31 11:45:50 | 52.53548 | 21.31771 | 71° | 66km/h | 10587m | 5.8m/s | -50.5°C | 49.2% | 253.9hPa | 0V | 00:00:00 | 00:00:00 | 00:00:00 | |
| SP4MAZ | 2026-08-31 11:45:29 | 52.53431 | 21.31159 | 77° | 73km/h | 10464m | 5.1m/s | 0°C | 0% | 0hPa | 0V | 00:00:00 | 00:00:00 | 00:00:00 | |
| SP3WXH-11 | 2026-08-31 11:45:19 | 52.53375 | 21.30750 | 73° | 82km/h | 10401m | 5.1m/s | 0°C | -1.0% | -1.0hPa | 0V | 00:00:00 | 00:00:00 | 00:00:00 | |
| SP4MAZ | 2026-08-31 11:44:57 | 52.53250 | 21.30167 | 80° | 69km/h | 10281m | 4.8m/s | 0°C | 0% | 0hPa | 0V | 00:00:00 | 00:00:00 | 00:00:00 | |
| SP4MAZ | 2026-08-31 11:44:34 | 52.53134 | 21.29481 | 77° | 68km/h | 10139m | 7.6m/s | 0°C | 0% | 0hPa | 0V | 00:00:00 | 00:00:00 | 00:00:00 | |
| SP4MAZ | 2026-08-31 11:44:14 | 52.53041 | 21.28936 | 63° | 75km/h | 10022m | 5.3m/s | 0°C | 0% | 0hPa | 0V | 00:00:00 | 00:00:00 | 00:00:00 | |
| SP4MAZ | 2026-08-31 11:43:43 | 52.52871 | 21.28127 | 71° | 58km/h | 9828m | 7.0m/s | 0°C | 0% | 0hPa | 0V | 00:00:00 | 00:00:00 | 00:00:00 | |
| SP4MAZ | 2026-08-31 11:43:23 | 52.52748 | 21.27547 | 77° | 80km/h | 9694m | 7.9m/s | 0°C | 0% | 0hPa | 0V | 00:00:00 | 00:00:00 | 00:00:00 | |
| SP4MAZ | 2026-08-31 11:42:59 | 52.52617 | 21.26875 | 75° | 80km/h | 9542m | 7.2m/s | 0°C | 0% | 0hPa | 0V | 00:00:00 | 00:00:00 | 00:00:00 | |
| SP4MAZ | 2026-08-31 11:42:39 | 52.52517 | 21.26275 | 84° | 73km/h | 9418m | 6.6m/s | 0°C | 0% | 0hPa | 0V | 00:00:00 | 00:00:00 | 00:00:00 | |
| SP4MAZ | 2026-08-31 11:42:08 | 52.52360 | 21.25322 | 71° | 71km/h | 9219m | 6.5m/s | 0°C | 0% | 0hPa | 0V | 00:00:00 | 00:00:00 | 00:00:00 | |
| SP4MAZ | 2026-08-31 11:41:25 | 52.51968 | 21.23981 | 72° | 80km/h | 8969m | 5.3m/s | 0°C | 0% | 0hPa | 0V | 00:00:00 | 00:00:00 | 00:00:00 | |
| SP4MAZ | 2026-08-31 11:41:05 | 52.51743 | 21.23317 | 58° | 77km/h | 8851m | 3.5m/s | 0°C | 0% | 0hPa | 0V | 00:00:00 | 00:00:00 | 00:00:00 | |
| SP4MAZ | 2026-08-31 11:40:33 | 52.51473 | 21.22316 | 70° | 91km/h | 8682m | 5.7m/s | 0°C | 0% | 0hPa | 0V | 00:00:00 | 00:00:00 | 00:00:00 | |
| SP4MAZ | 2026-08-31 11:40:10 | 52.51242 | 21.21570 | 62° | 84km/h | 8533m | 7.1m/s | 0°C | 0% | 0hPa | 0V | 00:00:00 | 00:00:00 | 00:00:00 | |
| SP4MAZ | 2026-08-31 11:39:50 | 52.51019 | 21.20997 | 59° | 93km/h | 8412m | 8.7m/s | 0°C | 0% | 0hPa | 0V | 00:00:00 | 00:00:00 | 00:00:00 | |
| SP4MAZ | 2026-08-31 11:39:30 | 52.50778 | 21.20412 | 64° | 71km/h | 8277m | 8.0m/s | 0°C | 0% | 0hPa | 0V | 00:00:00 | 00:00:00 | 00:00:00 | |
| SP4MAZ | 2026-08-31 11:38:56 | 52.50429 | 21.19425 | 66° | 89km/h | 8079m | 6.5m/s | 0°C | 0% | 0hPa | 0V | 00:00:00 | 00:00:00 | 00:00:00 | |
| SP4MAZ | 2026-08-31 11:38:34 | 52.50200 | 21.18765 | 56° | 71km/h | 7919m | 6.9m/s | 0°C | 0% | 0hPa | 0V | 00:00:00 | 00:00:00 | 00:00:00 | |
| SP4MAZ | 2026-08-31 11:38:13 | 52.49989 | 21.18235 | 59° | 80km/h | 7796m | 5.8m/s | 0°C | 0% | 0hPa | 0V | 00:00:00 | 00:00:00 | 00:00:00 | |
| SP4MAZ | 2026-08-31 11:37:42 | 52.49696 | 21.17495 | 63° | 75km/h | 7609m | 6.9m/s | 0°C | 0% | 0hPa | 0V | 00:00:00 | 00:00:00 | 00:00:00 | |
| SP4MAZ | 2026-08-31 11:37:22 | 52.49516 | 21.16950 | 52° | 69km/h | 7475m | 6.5m/s | 0°C | 0% | 0hPa | 0V | 00:00:00 | 00:00:00 | 00:00:00 | |
| SP4MAZ | 2026-08-31 11:36:58 | 52.49284 | 21.16396 | 63° | 66km/h | 7323m | 8.8m/s | 0°C | 0% | 0hPa | 0V | 00:00:00 | 00:00:00 | 00:00:00 | |
| SP4MAZ | 2026-08-31 11:36:38 | 52.49076 | 21.15917 | 47° | 68km/h | 7186m | 7.2m/s | 0°C | 0% | 0hPa | 0V | 00:00:00 | 00:00:00 | 00:00:00 | |
| SP4MAZ | 2026-08-31 11:36:07 | 52.48746 | 21.15166 | 62° | 75km/h | 6983m | 6.0m/s | 0°C | 0% | 0hPa | 0V | 00:00:00 | 00:00:00 | 00:00:00 | |
| SP4MAZ | 2026-08-31 11:35:46 | 52.48526 | 21.14658 | 54° | 68km/h | 6848m | 7.5m/s | 0°C | 0% | 0hPa | 0V | 00:00:00 | 00:00:00 | 00:00:00 | |
| SP4MAZ | 2026-08-31 11:35:22 | 52.48240 | 21.14021 | 56° | 71km/h | 6698m | 5.5m/s | 0°C | 0% | 0hPa | 0V | 00:00:00 | 00:00:00 | 00:00:00 | |
| SP4MAZ | 2026-08-31 11:35:02 | 52.48010 | 21.13476 | 58° | 77km/h | 6561m | 5.9m/s | 0°C | 0% | 0hPa | 0V | 00:00:00 | 00:00:00 | 00:00:00 | |
| SP4MAZ | 2026-08-31 11:34:41 | 52.47810 | 21.12964 | 69° | 69km/h | 6436m | 5.9m/s | 0°C | 0% | 0hPa | 0V | 00:00:00 | 00:00:00 | 00:00:00 | |
| SP4MAZ | 2026-08-31 11:34:09 | 52.47503 | 21.12276 | 55° | 66km/h | 6243m | 6.0m/s | 0°C | 0% | 0hPa | 0V | 00:00:00 | 00:00:00 | 00:00:00 | |
| SP4MAZ | 2026-08-31 11:33:48 | 52.47272 | 21.11830 | 51° | 58km/h | 6122m | 7.4m/s | 0°C | 0% | 0hPa | 0V | 00:00:00 | 00:00:00 | 00:00:00 | |
| SP4MAZ | 2026-08-31 11:33:26 | 52.47020 | 21.11348 | 46° | 73km/h | 5986m | 5.9m/s | 0°C | 0% | 0hPa | 0V | 00:00:00 | 00:00:00 | 00:00:00 | |
| SP4MAZ | 2026-08-31 11:32:16 | 52.46323 | 21.10092 | 51° | 53km/h | 5553m | 5.6m/s | 0°C | 0% | 0hPa | 0V | 00:00:00 | 00:00:00 | 00:00:00 | |
| SP4MAZ | 2026-08-31 11:31:53 | 52.46075 | 21.09785 | 43° | 55km/h | 5414m | 5.3m/s | 0°C | 0% | 0hPa | 0V | 00:00:00 | 00:00:00 | 00:00:00 | |
| SP4MAZ | 2026-08-31 11:31:13 | 52.45656 | 21.09344 | 31° | 60km/h | 5176m | 5.2m/s | 0°C | 0% | 0hPa | 0V | 00:00:00 | 00:00:00 | 00:00:00 | |
| SP4MAZ | 2026-08-31 11:30:51 | 52.45416 | 21.09102 | 26° | 44km/h | 5043m | 7.2m/s | 0°C | 0% | 0hPa | 0V | 00:00:00 | 00:00:00 | 00:00:00 | |
| SP4MAZ | 2026-08-31 11:30:20 | 52.45123 | 21.08819 | 31° | 44km/h | 4846m | 5.8m/s | 0°C | 0% | 0hPa | 0V | 00:00:00 | 00:00:00 | 00:00:00 | |
| SP4MAZ | 2026-08-31 11:28:51 | 52.44434 | 21.07721 | 51° | 53km/h | 4274m | 8.8m/s | 0°C | 0% | 0hPa | 0V | 00:00:00 | 00:00:00 | 00:00:00 | |
| SP4MAZ | 2026-08-31 11:28:28 | 52.44257 | 21.07314 | 54° | 44km/h | 4134m | 5.5m/s | 0°C | 0% | 0hPa | 0V | 00:00:00 | 00:00:00 | 00:00:00 | |
| SP4MAZ | 2026-08-31 11:27:39 | 52.43945 | 21.06205 | 70° | 80km/h | 3818m | 4.9m/s | 0°C | 0% | 0hPa | 0V | 00:00:00 | 00:00:00 | 00:00:00 | |
| SP4MAZ | 2026-08-31 11:26:21 | 52.43390 | 21.03605 | 68° | 77km/h | 3411m | 3.8m/s | 0°C | 0% | 0hPa | 0V | 00:00:00 | 00:00:00 | 00:00:00 | |
| SP4MAZ | 2026-08-31 11:25:46 | 52.43139 | 21.02442 | 69° | 78km/h | 3265m | 4.7m/s | 0°C | 0% | 0hPa | 0V | 00:00:00 | 00:00:00 | 00:00:00 | |
| SP4MAZ | 2026-08-31 11:25:23 | 52.42939 | 21.01756 | 75° | 66km/h | 3172m | 4.8m/s | 0°C | 0% | 0hPa | 0V | 00:00:00 | 00:00:00 | 00:00:00 |